createdAt,value
2018-04-18T00:00:47.727Z,60.46
2018-04-18T00:03:15.399Z,60.75
2018-04-18T00:05:43.048Z,60.93
2018-04-18T00:08:10.698Z,61.75
2018-04-18T00:10:38.325Z,61.44
2018-04-18T00:13:05.982Z,62.07
2018-04-18T00:15:33.590Z,63.10
2018-04-18T00:18:01.263Z,63.40
2018-04-18T00:20:28.878Z,63.61
2018-04-18T00:22:56.523Z,64.43
2018-04-18T00:25:24.148Z,64.39
2018-04-18T00:27:51.800Z,63.90
2018-04-18T00:30:19.416Z,63.90
2018-04-18T00:32:47.072Z,63.95
2018-04-18T00:35:14.726Z,63.95
2018-04-18T00:37:42.408Z,64.70
2018-04-18T00:40:10.046Z,64.96
2018-04-18T00:42:37.698Z,64.83
2018-04-18T00:45:05.323Z,64.67
2018-04-18T00:47:33.001Z,64.58
2018-04-18T00:50:00.610Z,64.87
2018-04-18T00:52:28.272Z,64.39
2018-04-18T00:54:55.893Z,64.21
2018-04-18T00:57:23.500Z,64.04
2018-04-18T00:59:51.157Z,63.98
2018-04-18T01:02:18.762Z,64.30
2018-04-18T01:04:46.441Z,63.90
2018-04-18T01:07:14.079Z,63.88
2018-04-18T01:09:41.788Z,64.03
2018-04-18T01:12:09.406Z,64.29
2018-04-18T01:14:37.118Z,64.91
2018-04-18T01:17:04.737Z,64.48
2018-04-18T01:19:32.450Z,64.45
2018-04-18T01:22:00.060Z,64.63
2018-04-18T01:24:27.740Z,64.38
2018-04-18T01:26:55.469Z,64.46
2018-04-18T01:29:23.188Z,64.38
2018-04-18T01:31:50.829Z,64.24
2018-04-18T01:34:18.488Z,64.44
2018-04-18T01:36:46.158Z,64.58
2018-04-18T01:39:13.804Z,64.47
2018-04-18T01:41:41.467Z,64.64
2018-04-18T01:44:09.128Z,65.37
2018-04-18T01:46:36.858Z,64.79
2018-04-18T01:49:16.331Z,65.04
2018-04-18T01:51:43.942Z,64.93
2018-04-18T01:54:11.622Z,65.13
2018-04-18T01:56:39.239Z,64.75
2018-04-18T01:59:06.886Z,65.01
2018-04-18T02:01:34.519Z,65.37
2018-04-18T02:04:02.186Z,65.55
2018-04-18T02:06:29.798Z,65.51
2018-04-18T02:08:57.591Z,65.54
2018-04-18T02:11:25.219Z,65.66
2018-04-18T02:13:52.881Z,65.37
2018-04-18T02:16:20.490Z,65.33
2018-04-18T02:18:48.148Z,65.79
2018-04-18T02:21:15.777Z,65.61
2018-04-18T02:23:43.434Z,66.44
2018-04-18T02:26:11.067Z,66.49
2018-04-18T02:28:38.766Z,66.72
2018-04-18T02:31:06.372Z,66.67
2018-04-18T02:33:34.067Z,66.69
2018-04-18T02:36:01.727Z,67.49
2018-04-18T02:38:29.377Z,67.41
2018-04-18T02:40:57.081Z,68.27
2018-04-18T02:43:24.742Z,68.15
2018-04-18T02:45:52.355Z,67.88
2018-04-18T02:48:20.050Z,67.89
2018-04-18T02:50:47.715Z,67.67
2018-04-18T02:53:15.365Z,67.75
2018-04-18T02:55:42.985Z,67.96
2018-04-18T02:58:10.631Z,68.92
2018-04-18T03:00:38.235Z,70.56
2018-04-18T03:03:05.922Z,70.01
2018-04-18T03:05:33.526Z,69.97
2018-04-18T03:08:01.197Z,69.95
2018-04-18T03:10:28.811Z,69.54
2018-04-18T03:12:56.428Z,70.03
2018-04-18T03:15:24.084Z,69.85
2018-04-18T03:17:51.700Z,70.10
2018-04-18T03:20:19.405Z,71.23
2018-04-18T03:22:47.015Z,71.82
2018-04-18T03:25:14.687Z,72.36
2018-04-18T03:27:42.311Z,72.30
2018-04-18T03:30:09.963Z,72.73
2018-04-18T03:32:37.591Z,72.39
2018-04-18T03:35:05.246Z,71.52
2018-04-18T03:37:32.858Z,71.22
2018-04-18T03:40:00.511Z,70.85
2018-04-18T03:42:28.147Z,70.31
2018-04-18T03:44:55.847Z,70.20
2018-04-18T03:47:23.462Z,69.93
2018-04-18T03:49:51.115Z,70.59
2018-04-18T03:52:18.727Z,70.15
2018-04-18T03:54:46.388Z,70.58
2018-04-18T03:57:13.997Z,71.40
2018-04-18T03:59:41.668Z,71.79
2018-04-18T04:02:09.286Z,72.83
2018-04-18T04:04:36.983Z,73.38
2018-04-18T04:07:04.600Z,73.69
2018-04-18T04:09:32.263Z,73.85
2018-04-18T04:11:59.866Z,73.63
2018-04-18T04:14:27.506Z,72.83
2018-04-18T04:20:13.698Z,71.54
2018-04-18T04:22:53.091Z,71.20
2018-04-18T04:25:20.755Z,71.10
2018-04-18T04:27:48.386Z,71.12
2018-04-18T04:30:16.086Z,70.69
2018-04-18T04:32:43.739Z,70.82
2018-04-18T04:35:11.457Z,70.63
2018-04-18T04:37:39.134Z,70.47
2018-04-18T04:40:06.860Z,70.65
2018-04-18T04:42:34.494Z,70.39
2018-04-18T04:45:02.157Z,70.12
2018-04-18T04:47:29.782Z,69.91
2018-04-18T04:49:57.474Z,70.07
2018-04-18T04:52:25.097Z,70.77
2018-04-18T04:54:52.767Z,71.14
2018-04-18T04:57:20.394Z,70.22
2018-04-18T04:59:48.068Z,70.20
2018-04-18T05:02:15.783Z,71.33
2018-04-18T05:04:43.465Z,70.30
2018-04-18T05:07:11.150Z,71.11
2018-04-18T05:09:38.847Z,70.05
2018-04-18T05:12:06.483Z,68.55
2018-04-18T05:14:34.156Z,67.93
2018-04-18T05:17:01.777Z,67.75
2018-04-18T05:19:29.434Z,67.22
2018-04-18T05:21:57.047Z,66.91
2018-04-18T05:24:24.726Z,66.54
2018-04-18T05:26:52.335Z,65.94
2018-04-18T05:29:20.007Z,64.67
2018-04-18T05:31:47.667Z,63.72
2018-04-18T05:34:15.287Z,63.17
2018-04-18T05:36:42.960Z,62.47
2018-04-18T05:39:10.580Z,62.44
2018-04-18T05:41:38.308Z,62.13
2018-04-18T05:44:05.920Z,62.43
2018-04-18T05:46:33.589Z,61.58
2018-04-18T05:49:01.198Z,61.65
2018-04-18T05:51:28.889Z,60.37
2018-04-18T05:53:56.544Z,60.30
2018-04-18T05:56:24.262Z,58.54
2018-04-18T05:58:51.907Z,58.67
2018-04-18T06:01:19.575Z,58.18
2018-04-18T06:03:47.190Z,59.65
2018-04-18T06:06:14.865Z,59.39
2018-04-18T06:08:42.640Z,59.13
2018-04-18T06:11:10.382Z,57.32
2018-04-18T06:13:38.003Z,56.27
2018-04-18T06:16:05.655Z,58.78
2018-04-18T06:18:33.340Z,57.79
2018-04-18T06:21:01.209Z,57.77
2018-04-18T06:23:28.873Z,57.83
2018-04-18T06:25:56.547Z,56.02
2018-04-18T06:28:24.160Z,54.07
2018-04-18T06:30:51.833Z,56.46
2018-04-18T06:33:19.447Z,57.99
2018-04-18T06:35:47.150Z,57.94
2018-04-18T06:38:14.789Z,56.27
2018-04-18T06:40:42.488Z,54.24
2018-04-18T06:43:10.146Z,54.15
2018-04-18T06:45:37.803Z,54.99
2018-04-18T06:48:05.424Z,54.43
2018-04-18T06:50:33.091Z,54.53
2018-04-18T06:53:00.785Z,53.56
2018-04-18T06:55:28.468Z,53.58
2018-04-18T06:57:56.084Z,53.62
2018-04-18T07:00:23.746Z,53.09
2018-04-18T07:02:51.350Z,52.62
2018-04-18T07:05:19.003Z,52.65
2018-04-18T07:07:46.618Z,51.73
2018-04-18T07:10:14.300Z,50.17
2018-04-18T07:12:41.982Z,48.61
2018-04-18T07:15:09.639Z,47.44
2018-04-18T07:17:37.254Z,48.92
2018-04-18T07:20:04.911Z,46.78
2018-04-18T07:22:32.531Z,46.52
2018-04-18T07:25:00.377Z,43.31
2018-04-18T07:27:28.018Z,41.14
2018-04-18T07:29:55.709Z,39.93
2018-04-18T07:32:23.331Z,38.15
2018-04-18T07:34:51.046Z,37.37
2018-04-18T07:37:18.663Z,34.45
2018-04-18T07:39:46.279Z,35.03
2018-04-18T07:42:13.969Z,35.44
2018-04-18T07:44:41.589Z,35.17
2018-04-18T07:47:09.242Z,32.99
2018-04-18T07:49:36.850Z,34.79
2018-04-18T07:52:04.511Z,36.82
2018-04-18T07:54:32.130Z,34.34
2018-04-18T07:56:59.783Z,31.31
2018-04-18T07:59:27.398Z,30.19
2018-04-18T08:01:55.104Z,27.54
2018-04-18T08:04:22.711Z,28.34
2018-04-18T08:06:50.372Z,27.70
2018-04-18T08:09:17.993Z,30.08
2018-04-18T08:11:45.646Z,27.62
2018-04-18T08:14:13.258Z,26.90
2018-04-18T08:16:40.963Z,25.46
2018-04-18T08:19:08.583Z,27.82
2018-04-18T08:21:36.239Z,25.63
2018-04-18T08:24:03.858Z,24.40
2018-04-18T08:26:31.539Z,23.67
2018-04-18T08:28:59.161Z,24.63
2018-04-18T08:31:26.815Z,26.09
2018-04-18T08:33:54.411Z,23.68
2018-04-18T08:36:22.114Z,22.93
2018-04-18T08:38:49.719Z,24.16
2018-04-18T08:41:17.375Z,22.50
2018-04-18T08:43:44.990Z,24.90
2018-04-18T08:46:12.662Z,23.52
2018-04-18T08:48:40.279Z,27.09
2018-04-18T08:51:07.931Z,23.99
2018-04-18T08:53:35.547Z,25.10
2018-04-18T08:56:03.193Z,24.31
2018-04-18T08:58:30.801Z,25.66
2018-04-18T09:00:58.462Z,23.84
2018-04-18T09:03:26.070Z,25.60
2018-04-18T09:05:53.719Z,25.65
2018-04-18T09:08:21.331Z,26.06
2018-04-18T09:10:48.982Z,29.20
2018-04-18T09:13:16.589Z,27.96
2018-04-18T09:15:44.291Z,27.65
2018-04-18T09:18:11.907Z,26.36
2018-04-18T09:20:39.572Z,28.63
2018-04-18T09:23:07.184Z,29.34
2018-04-18T09:25:34.834Z,27.72
2018-04-18T09:28:02.448Z,26.75
2018-04-18T09:30:30.102Z,27.56
2018-04-18T09:32:57.741Z,27.49
2018-04-18T09:35:25.394Z,27.38
2018-04-18T09:37:53.042Z,25.29
2018-04-18T09:40:20.711Z,25.70
2018-04-18T09:42:48.330Z,25.73
2018-04-18T09:45:15.951Z,27.97
2018-04-18T09:47:43.615Z,26.57
2018-04-18T09:50:11.262Z,27.48
2018-04-18T09:52:38.922Z,27.34
2018-04-18T09:55:06.537Z,26.70
2018-04-18T09:57:34.272Z,27.07
2018-04-18T10:00:01.887Z,25.21
2018-04-18T10:02:29.578Z,26.02
2018-04-18T10:05:11.891Z,25.85
2018-04-18T10:07:39.543Z,25.55
2018-04-18T10:10:07.162Z,28.32
2018-04-18T10:12:34.814Z,27.71
2018-04-18T10:15:02.446Z,27.09
2018-04-18T10:17:30.106Z,27.83
2018-04-18T10:19:57.733Z,27.67
2018-04-18T10:22:25.382Z,26.69
2018-04-18T10:24:52.986Z,25.71
2018-04-18T10:27:20.631Z,26.19
2018-04-18T10:29:48.269Z,25.95
2018-04-18T10:32:15.931Z,26.68
2018-04-18T10:34:43.546Z,25.58
2018-04-18T10:37:11.239Z,25.48
2018-04-18T10:39:38.895Z,26.27
2018-04-18T10:42:06.550Z,24.96
2018-04-18T10:44:34.177Z,25.52
2018-04-18T10:47:01.835Z,25.91
2018-04-18T10:49:29.442Z,25.21
2018-04-18T10:51:57.123Z,25.22
2018-04-18T10:54:24.782Z,25.16
2018-04-18T10:56:52.438Z,25.47
2018-04-18T10:59:20.045Z,24.06
2018-04-18T11:01:47.698Z,24.58
2018-04-18T11:04:15.324Z,24.86
2018-04-18T11:06:42.975Z,24.18
2018-04-18T11:09:10.596Z,23.32
2018-04-18T11:11:38.255Z,22.62
2018-04-18T11:14:05.873Z,23.96
2018-04-18T11:16:33.541Z,22.65
2018-04-18T11:19:01.144Z,22.68
2018-04-18T11:21:28.804Z,22.40
2018-04-18T11:23:56.423Z,23.04
2018-04-18T11:26:24.083Z,23.05
2018-04-18T11:28:51.711Z,21.21
2018-04-18T11:31:19.366Z,21.72
2018-04-18T11:33:47.031Z,22.05
2018-04-18T11:36:14.738Z,22.18
2018-04-18T11:38:42.332Z,21.41
2018-04-18T11:41:09.981Z,20.50
2018-04-18T11:43:37.624Z,21.07
2018-04-18T11:46:05.291Z,23.32
2018-04-18T11:48:32.898Z,21.15
2018-04-18T11:51:00.573Z,21.89
2018-04-18T11:53:28.225Z,21.82
2018-04-18T11:55:55.832Z,21.01
2018-04-18T11:58:23.617Z,20.74
2018-04-18T12:00:51.242Z,20.93
2018-04-18T12:03:18.906Z,21.69
2018-04-18T12:05:46.532Z,21.37
2018-04-18T12:08:14.193Z,21.65
2018-04-18T12:10:41.811Z,21.51
2018-04-18T12:13:09.467Z,22.77
2018-04-18T12:15:37.083Z,20.79
2018-04-18T12:18:04.730Z,22.00
2018-04-18T12:20:32.437Z,20.95
2018-04-18T12:23:00.110Z,20.69
2018-04-18T12:25:27.750Z,22.91
2018-04-18T12:27:55.401Z,22.59
2018-04-18T12:30:23.012Z,20.90
2018-04-18T12:32:50.663Z,20.00
2018-04-18T12:35:18.299Z,18.89
2018-04-18T12:37:45.957Z,17.66
2018-04-18T12:40:13.603Z,16.94
2018-04-18T12:42:41.253Z,17.38
2018-04-18T12:45:08.881Z,17.31
2018-04-18T12:47:36.530Z,19.49
2018-04-18T12:50:04.160Z,15.81
2018-04-18T12:52:31.822Z,16.00
2018-04-18T12:54:59.469Z,17.18
2018-04-18T12:57:27.130Z,20.75
2018-04-18T12:59:54.746Z,18.78
2018-04-18T13:02:22.411Z,18.03
2018-04-18T13:04:50.038Z,19.10
2018-04-18T13:07:17.728Z,18.85
2018-04-18T13:09:45.326Z,18.84
2018-04-18T13:12:12.988Z,18.71
2018-04-18T13:14:40.620Z,17.14
2018-04-18T13:17:08.279Z,18.22
2018-04-18T13:19:35.899Z,18.71
2018-04-18T13:22:03.574Z,20.54
2018-04-18T13:24:31.202Z,17.82
2018-04-18T13:26:58.860Z,17.30
2018-04-18T13:29:26.480Z,19.54
2018-04-18T13:31:54.138Z,17.68
2018-04-18T13:34:21.746Z,18.81
2018-04-18T13:36:49.396Z,19.77
2018-04-18T13:39:17.024Z,17.71
2018-04-18T13:41:44.678Z,19.40
2018-04-18T13:44:12.282Z,20.11
2018-04-18T13:49:06.831Z,19.45
2018-04-18T13:51:34.490Z,19.13
2018-04-18T13:54:02.123Z,18.45
2018-04-18T13:56:29.735Z,16.59
2018-04-18T13:58:57.416Z,16.70
2018-04-18T14:01:25.039Z,18.38
2018-04-18T14:03:52.710Z,18.09
2018-04-18T14:06:20.326Z,18.09
2018-04-18T14:08:47.995Z,18.74
2018-04-18T14:11:15.591Z,18.77
2018-04-18T14:13:43.259Z,19.66
2018-04-18T14:16:10.873Z,17.35
2018-04-18T14:18:38.518Z,16.49
2018-04-18T14:21:06.169Z,16.89
2018-04-18T14:23:33.835Z,17.73
2018-04-18T14:26:01.460Z,19.91
2018-04-18T14:28:29.118Z,18.52
2018-04-18T14:30:56.739Z,18.11
2018-04-18T14:33:24.401Z,18.39
2018-04-18T14:35:52.023Z,19.14
2018-04-18T14:38:19.683Z,19.89
2018-04-18T14:40:47.302Z,18.51
2018-04-18T14:43:14.960Z,20.73
2018-04-18T14:45:42.583Z,19.38
2018-04-18T14:48:10.237Z,21.51
2018-04-18T14:50:37.838Z,19.16
2018-04-18T14:53:05.488Z,21.76
2018-04-18T14:55:33.105Z,20.50
2018-04-18T14:58:00.770Z,20.13
2018-04-18T15:00:28.387Z,20.05
2018-04-18T15:02:56.035Z,20.87
2018-04-18T15:05:23.677Z,20.24
2018-04-18T15:07:51.337Z,22.23
2018-04-18T15:10:18.966Z,20.11
2018-04-18T15:12:46.639Z,18.97
2018-04-18T15:15:14.257Z,20.63
2018-04-18T15:17:41.909Z,21.67
2018-04-18T15:20:09.525Z,20.61
2018-04-18T15:22:37.176Z,20.65
2018-04-18T15:25:04.785Z,20.20
2018-04-18T15:27:32.438Z,20.22
2018-04-18T15:30:00.051Z,19.96
2018-04-18T15:32:27.709Z,20.94
2018-04-18T15:34:55.319Z,21.73
2018-04-18T15:37:22.982Z,21.33
2018-04-18T15:39:50.601Z,21.27
2018-04-18T15:42:18.283Z,20.93
2018-04-18T15:44:45.891Z,21.39
2018-04-18T15:47:13.551Z,21.73
2018-04-18T15:49:41.171Z,23.20
2018-04-18T15:52:08.835Z,23.10
2018-04-18T15:54:36.438Z,23.95
2018-04-18T15:57:04.116Z,23.04
2018-04-18T15:59:31.736Z,25.12
2018-04-18T16:01:59.370Z,25.73
2018-04-18T16:04:27.041Z,26.19
2018-04-18T16:06:54.657Z,25.60
2018-04-18T16:09:22.321Z,26.14
2018-04-18T16:11:49.952Z,25.37
2018-04-18T16:14:17.618Z,25.62
2018-04-18T16:16:45.231Z,25.43
2018-04-18T16:19:12.901Z,25.80
2018-04-18T16:21:40.514Z,25.80
2018-04-18T16:24:08.170Z,26.47
2018-04-18T16:26:35.810Z,28.18
2018-04-18T16:29:15.388Z,25.19
2018-04-18T16:31:43.026Z,26.06
2018-04-18T16:34:10.744Z,27.46
2018-04-18T16:36:38.403Z,26.96
2018-04-18T16:39:06.130Z,27.07
2018-04-18T16:41:33.800Z,27.00
2018-04-18T16:44:01.453Z,27.33
2018-04-18T16:46:29.062Z,29.29
2018-04-18T16:48:56.716Z,28.11
2018-04-18T16:51:24.325Z,28.17
2018-04-18T16:53:51.985Z,28.54
2018-04-18T16:56:19.603Z,28.61
2018-04-18T16:58:47.256Z,28.57
2018-04-18T17:01:14.876Z,29.21
2018-04-18T17:03:42.499Z,26.36
2018-04-18T17:06:10.153Z,25.67
2018-04-18T17:08:37.778Z,25.25
2018-04-18T17:11:05.431Z,27.16
2018-04-18T17:13:33.060Z,26.46
2018-04-18T17:16:00.760Z,26.09
2018-04-18T17:18:28.376Z,27.20
2018-04-18T17:20:56.093Z,25.70
2018-04-18T17:23:23.730Z,25.96
2018-04-18T17:25:51.378Z,25.87
2018-04-18T17:28:18.990Z,26.41
2018-04-18T17:30:46.639Z,25.95
2018-04-18T17:33:14.280Z,26.89
2018-04-18T17:35:41.967Z,27.50
2018-04-18T17:38:09.583Z,26.63
2018-04-18T17:40:37.244Z,26.46
2018-04-18T17:43:04.867Z,26.70
2018-04-18T17:45:32.523Z,26.54
2018-04-18T17:48:00.138Z,27.20
2018-04-18T17:50:27.830Z,27.22
2018-04-18T17:52:55.455Z,28.33
2018-04-18T17:55:23.100Z,29.35
2018-04-18T17:57:50.773Z,29.94
2018-04-18T18:00:18.441Z,30.51
2018-04-18T18:02:46.088Z,31.87
2018-04-18T18:05:13.759Z,32.17
2018-04-18T18:07:41.408Z,32.29
2018-04-18T18:10:09.028Z,31.31
2018-04-18T18:12:36.674Z,30.78
2018-04-18T18:15:04.340Z,31.36
2018-04-18T18:17:31.994Z,31.77
2018-04-18T18:19:59.634Z,31.53
2018-04-18T18:22:27.289Z,31.53
2018-04-18T18:24:54.942Z,31.98
2018-04-18T18:27:22.639Z,32.89
2018-04-18T18:29:50.291Z,32.72
2018-04-18T18:32:18.023Z,32.64
2018-04-18T18:34:45.630Z,32.66
2018-04-18T18:37:13.299Z,33.77
2018-04-18T18:39:40.918Z,33.32
2018-04-18T18:42:08.574Z,33.94
2018-04-18T18:44:36.195Z,32.80
2018-04-18T18:47:03.820Z,33.08
2018-04-18T18:49:31.471Z,33.86
2018-04-18T18:51:59.088Z,34.89
2018-04-18T18:54:26.739Z,34.75
2018-04-18T18:56:54.359Z,34.29
2018-04-18T18:59:22.032Z,34.53
2018-04-18T19:01:49.644Z,35.71
2018-04-18T19:04:17.320Z,34.46
2018-04-18T19:06:44.947Z,34.95
2018-04-18T19:09:12.619Z,35.10
2018-04-18T19:11:40.231Z,35.22
2018-04-18T19:14:07.898Z,35.68
2018-04-18T19:16:35.549Z,34.69
2018-04-18T19:19:03.206Z,34.77
2018-04-18T19:21:30.826Z,35.25
2018-04-18T19:23:58.476Z,36.33
2018-04-18T19:26:26.091Z,36.06
2018-04-18T19:28:53.751Z,35.85
2018-04-18T19:31:21.382Z,35.79
2018-04-18T19:33:49.070Z,35.92
2018-04-18T19:36:16.683Z,35.81
2018-04-18T19:38:44.339Z,36.21
2018-04-18T19:41:11.971Z,36.00
2018-04-18T19:43:39.755Z,37.01
2018-04-18T19:46:07.399Z,37.09
2018-04-18T19:48:35.106Z,36.75
2018-04-18T19:51:02.765Z,36.88
2018-04-18T19:53:30.430Z,37.26
2018-04-18T19:55:58.099Z,36.75
2018-04-18T19:58:25.766Z,36.82
2018-04-18T20:00:53.412Z,36.69
2018-04-18T20:03:21.090Z,36.76
2018-04-18T20:05:48.747Z,36.77
2018-04-18T20:08:16.407Z,37.25
2018-04-18T20:10:44.038Z,36.93
2018-04-18T20:13:11.741Z,37.37
2018-04-18T20:15:39.350Z,37.53
2018-04-18T20:18:07.015Z,37.42
2018-04-18T20:20:34.632Z,37.72
2018-04-18T20:23:02.256Z,37.92
2018-04-18T20:25:29.907Z,38.23
2018-04-18T20:27:57.531Z,37.86
2018-04-18T20:30:25.190Z,38.22
2018-04-18T20:32:52.856Z,38.53
2018-04-18T20:35:20.507Z,38.45
2018-04-18T20:37:48.118Z,38.60
2018-04-18T20:40:15.779Z,38.46
2018-04-18T20:42:55.419Z,38.46
2018-04-18T20:45:23.067Z,38.45
2018-04-18T20:47:50.670Z,38.56
2018-04-18T20:50:18.371Z,38.91
2018-04-18T20:52:46.075Z,38.70
2018-04-18T20:55:13.729Z,38.77
2018-04-18T20:57:41.342Z,38.48
2018-04-18T21:00:09.060Z,39.19
2018-04-18T21:02:36.677Z,39.56
2018-04-18T21:05:04.332Z,39.27
2018-04-18T21:07:31.938Z,39.66
2018-04-18T21:09:59.598Z,40.14
2018-04-18T21:12:27.259Z,39.99
2018-04-18T21:14:54.939Z,42.49
2018-04-18T21:17:22.568Z,43.05
2018-04-18T21:19:50.259Z,43.15
2018-04-18T21:22:18.176Z,44.27
2018-04-18T21:24:45.852Z,44.16
2018-04-18T21:27:13.490Z,45.59
2018-04-18T21:29:41.155Z,45.12
2018-04-18T21:32:08.778Z,45.80
2018-04-18T21:34:36.438Z,45.66
2018-04-18T21:37:04.069Z,45.88
2018-04-18T21:39:31.726Z,46.35
2018-04-18T21:41:59.334Z,46.56
2018-04-18T21:44:27.021Z,47.21
2018-04-18T21:46:54.686Z,46.45
2018-04-18T21:49:22.332Z,46.49
2018-04-18T21:51:49.942Z,46.94
2018-04-18T21:54:17.590Z,46.38
2018-04-18T21:56:45.200Z,47.50
2018-04-18T21:59:12.859Z,47.58
2018-04-18T22:01:40.472Z,48.20
2018-04-18T22:04:08.143Z,48.27
2018-04-18T22:06:35.787Z,49.15
2018-04-18T22:09:03.534Z,49.64
2018-04-18T22:11:31.147Z,49.75
2018-04-18T22:13:58.807Z,49.80
2018-04-18T22:16:26.438Z,50.07
2018-04-18T22:18:54.098Z,49.88
2018-04-18T22:21:21.719Z,50.79
2018-04-18T22:23:49.387Z,50.85
2018-04-18T22:26:16.999Z,51.24
2018-04-18T22:28:44.711Z,51.26
2018-04-18T22:31:12.358Z,51.43
2018-04-18T22:33:40.035Z,51.68
2018-04-18T22:36:07.721Z,51.87
2018-04-18T22:38:35.339Z,51.35
2018-04-18T22:41:02.996Z,51.55
2018-04-18T22:43:30.604Z,51.75
2018-04-18T22:45:58.266Z,52.09
2018-04-18T22:48:25.916Z,52.47
2018-04-18T22:50:53.575Z,52.73
2018-04-18T22:53:21.185Z,53.10
2018-04-18T22:55:48.843Z,53.47
2018-04-18T22:58:16.476Z,53.41
2018-04-18T23:00:44.175Z,53.57
2018-04-18T23:03:11.794Z,53.65
2018-04-18T23:05:39.468Z,53.84
2018-04-18T23:08:07.129Z,53.83
2018-04-18T23:10:34.766Z,53.58
2018-04-18T23:13:02.392Z,53.48
2018-04-18T23:15:30.048Z,53.37
2018-04-18T23:17:57.683Z,54.28
2018-04-18T23:20:25.326Z,54.64
2018-04-18T23:22:52.936Z,54.45
2018-04-18T23:25:20.579Z,54.67
2018-04-18T23:27:48.186Z,56.16
2018-04-18T23:30:15.843Z,55.67
2018-04-18T23:32:43.490Z,55.65
2018-04-18T23:35:11.153Z,55.81
2018-04-18T23:37:38.794Z,56.06
2018-04-18T23:40:06.443Z,55.75
2018-04-18T23:42:34.096Z,55.47
2018-04-18T23:45:01.785Z,55.24
2018-04-18T23:47:29.461Z,55.13
2018-04-18T23:49:57.186Z,54.87
2018-04-18T23:52:24.827Z,55.34
2018-04-18T23:54:52.508Z,54.68
2018-04-18T23:57:20.129Z,53.68
2018-04-18T23:59:47.794Z,54.29
